Terminal Aerodrome Forecast
Issued by NWS Duluth, MN

Home | Current Version | Previous Version | Text Only | Print | Product List | Glossary On
Versions: 1 2 3 4 5 6 7 8 9 10 11 12 13 14 15 16 17 18 19 20
686
FTUS43 KDLH 210737 AAB
TAFDLH
TAF AMD
KDLH 210737Z 2108/2206 21005KT P6SM VCTS SCT009 OVC015CB
     FM210830 VRB20G30KT 1SM -TSRA BKN015CB OVC030
     FM211000 34012KT 5SM -SHRA BR VCTS BKN025CB
     FM211400 19006KT P6SM VCSH SCT025 BKN150
     FM211800 28011KT P6SM SCT050
     FM220000 29004KT P6SM SCT080=

USA.gov is the U.S. government's official web portal to all federal, state and local government web resources and services.